METAR - Iceland

Last updated 20.09.2019 - at. 10:11

SIGMET for the last six hours

BIRD SIGMET A01 VALID 200930/201200 BIRK- BIRD REYKJAVIK CTA SEV TURB OBS AT 0911Z WI N69 W040 - N65 W040 - N65 W045 - N69 W045 - N69 W040 FL280/360 MOV E 20KT WKN

METAR from the last three hours

AerodromeTimeMessage
BIAR2019-09-20 10.00METAR BIAR 201000Z 18005KT 9999 DZ SCT050 12/10 Q1004 RMK WIND VADLAHEIDI 20014KT
BIAR2019-09-20 09.00METAR BIAR 200900Z 21004KT 170V240 9999 -RA BKN051 12/10 Q1004 RMK WIND VADLAHEIDI 19015KT
BIAR2019-09-20 08.00METAR BIAR 200800Z 15008KT 9999 DZ OVC062 12/10 Q1003 RMK WIND VADLAHEIDI 16010KT
BIBD2019-09-20 10.00METAR BIBD 201000Z 00000KT 9999 RA FEW012 OVC020 11/10 Q1001
BIBD2019-09-20 09.00METAR BIBD 200900Z 00000KT 9999 RA FEW014 OVC020 11/10 Q1001
BIBD2019-09-20 08.13METAR BIBD 200813Z 04003KT 9999 -RA FEW014 OVC020 11/10 Q1001
BIEG2019-09-20 10.00METAR BIEG 201000Z 17003KT 9999 FEW040 14/11 Q1005 RMK WIND GAGNHEIDI 24018KT
BIEG2019-09-20 09.00METAR BIEG 200900Z 17003KT 9999 BKN100 14/11 Q1004 RMK WIND GAGNHEIDI 23019KT
BIEG2019-09-20 08.00METAR BIEG 200800Z 15005KT 9999 FEW040 BKN100 OVC180 15/10 Q1004 RMK WIND GAGNHEIDI 24016KT
BIGJ2019-09-20 09.49METAR BIGJ 200949Z 33008KT 1500 -RA FG VV002 07/07 Q1005
BIGR2019-09-20 10.00METAR BIGR 201000Z 08019KT 6000 RA SCT003 OVC005 07/07 Q1005
BIGR2019-09-20 09.00METAR BIGR 200900Z 08017KT 5000 +RA SCT003 OVC005 07/07 Q1004
BIGR2019-09-20 08.00METAR BIGR 200800Z 08018KT 4000 +RA SCT003 OVC005 07/07 Q1004
BIHN2019-09-20 10.00METAR BIHN 201000Z 15007KT 5500 -RA BKN003 OVC008 11/10 Q1009
BIHN2019-09-20 09.00METAR BIHN 200900Z 13006KT 6000 -RADZ BR BKN005 OVC010 11/10 Q1009
BIHN2019-09-20 08.46SPECI BIHN 200846Z 14005KT 5000 -RADZ BR BKN005 OVC010 11/10 Q1009
BIHN2019-09-20 08.00METAR BIHN 200800Z 13005KT 4500 -RADZ BR BKN003 OVC005 11/10 Q1008
BIHU2019-09-20 09.00METAR BIHU 200900Z 00000KT 7000 RA SCT003 BKN020 OVC040 08/08 Q1004
BIHU2019-09-20 08.00METAR BIHU 200800Z 34001KT 9000 RA SCT003 BKN025 OVC055 08/08 Q1004
BIIS2019-09-20 10.00METAR BIIS 201000Z 05004KT 9999 RA FEW010 SCT015 OVC022 09/07 Q1003
BIIS2019-09-20 09.00METAR BIIS 200900Z VRB03KT 9999 RA FEW010 SCT015 OVC022 09/07 Q1003
BIIS2019-09-20 07.47METAR BIIS 200747Z 02009KT 9999 RA FEW010 BKN015 OVC023 09/07 Q1002
BIKF2019-09-20 10.00METAR BIKF 201000Z 16019KT 6000 -RA OVC005 11/11 Q1000
BIKF2019-09-20 09.30METAR BIKF 200930Z 15017KT 6000 -RA OVC004 11/11 Q1000
BIKF2019-09-20 09.00METAR BIKF 200900Z 15017KT 3200 -RA FEW002 BKN005 OVC008 11/11 Q1000
BIKF2019-09-20 08.30METAR BIKF 200830Z 15016KT 7000 -RA FEW003 BKN005 OVC007 11/11 Q1000
BIKF2019-09-20 08.00METAR BIKF 200800Z 15017KT 7000 -RA FEW003 BKN006 OVC008 11/11 Q1000
BIKF2019-09-20 07.34METAR BIKF 200734Z 15015KT 9999 -RA SCT002 BKN004 OVC008 11/11 Q1000
BIRK2019-09-20 10.00METAR BIRK 201000Z 17012KT 9999 RADZ FEW007 BKN011 OVC018 12/10 Q1001
BIRK2019-09-20 09.00METAR BIRK 200900Z 14007KT 9999 RA FEW007 BKN015 BKN022 12/10 Q1001
BIRK2019-09-20 08.00METAR BIRK 200800Z 10008KT 9999 -RADZ FEW006 BKN015 OVC022 11/09 Q1001
BITN2019-09-20 10.00METAR BITN 201000Z 21005KT 9999 4999S SCT004 BKN040 08/08 Q1005
BITN2019-09-20 09.00METAR BITN 200900Z 24006KT 9999 4999S -RA SCT004 BKN040 08/08 Q1005
BITN2019-09-20 08.00METAR BITN 200800Z VRB03KT 9999 -RA SCT004 BKN040 08/08 Q1004
BIVM2019-09-20 10.00METAR BIVM 201000Z 18018G33KT 1200 -DZ BR VV001 11/11 Q1003
BIVM2019-09-20 09.00METAR BIVM 200900Z 18018G33KT 0700 -DZ FG VV000 11/11 Q1003
BIVM2019-09-20 08.00METAR BIVM 200800Z 18019G33KT 0800 -DZ FG VV000 11/11 Q1003
BIVO2019-09-20 10.00METAR BIVO 201000Z 02004KT 9999 -RA OVC050 11/10 Q1005
BIVO2019-09-20 09.11METAR BIVO 200911Z 23004KT 9999 -RA OVC050 13/10 Q1005
BIVO2019-09-20 08.00METAR BIVO 200800Z 23008KT 9999 -RA OVC050 14/10 Q1004





Other related web sites


This website is built with Eplica CMS